sensor_id;sensor_type;location;lat;lon;timestamp;pressure;altitude;pressure_sealevel;temperature;humidity
69780;BME280;57052;55.602;38.096;2023-03-25T00:00:57;99254.66;;;7.57;71.15
69780;BME280;57052;55.602;38.096;2023-03-25T00:03:28;99241.50;;;7.56;70.77
69780;BME280;57052;55.602;38.096;2023-03-25T00:05:55;99231.53;;;7.51;70.75
69780;BME280;57052;55.602;38.096;2023-03-25T00:08:23;99239.59;;;7.56;70.84
69780;BME280;57052;55.602;38.096;2023-03-25T00:10:58;99226.41;;;7.50;71.20
69780;BME280;57052;55.602;38.096;2023-03-25T00:13:25;99223.16;;;7.58;71.17
69780;BME280;57052;55.602;38.096;2023-03-25T00:15:51;99220.78;;;7.51;71.02
69780;BME280;57052;55.602;38.096;2023-03-25T00:18:23;99221.84;;;7.50;70.72
69780;BME280;57052;55.602;38.096;2023-03-25T00:20:50;99212.72;;;7.41;71.19
69780;BME280;57052;55.602;38.096;2023-03-25T00:23:18;99210.81;;;7.37;71.46
69780;BME280;57052;55.602;38.096;2023-03-25T00:25:45;99210.28;;;7.40;70.76
69780;BME280;57052;55.602;38.096;2023-03-25T00:28:11;99209.78;;;7.33;71.60
69780;BME280;57052;55.602;38.096;2023-03-25T00:30:38;99218.13;;;7.36;71.11
69780;BME280;57052;55.602;38.096;2023-03-25T00:33:04;99207.59;;;7.40;71.38
69780;BME280;57052;55.602;38.096;2023-03-25T00:35:30;99211.63;;;7.42;70.77
69780;BME280;57052;55.602;38.096;2023-03-25T00:37:57;99208.94;;;7.42;71.58
69780;BME280;57052;55.602;38.096;2023-03-25T00:40:27;99215.94;;;7.43;71.34
69780;BME280;57052;55.602;38.096;2023-03-25T00:42:54;99189.31;;;7.27;70.93
69780;BME280;57052;55.602;38.096;2023-03-25T00:45:19;99194.41;;;7.38;70.98
69780;BME280;57052;55.602;38.096;2023-03-25T00:47:45;99204.63;;;7.46;70.80
69780;BME280;57052;55.602;38.096;2023-03-25T00:50:11;99198.69;;;7.44;71.10
69780;BME280;57052;55.602;38.096;2023-03-25T00:52:37;99191.72;;;7.43;71.17
69780;BME280;57052;55.602;38.096;2023-03-25T00:55:03;99196.81;;;7.40;70.50
69780;BME280;57052;55.602;38.096;2023-03-25T00:57:30;99192.78;;;7.37;70.23
69780;BME280;57052;55.602;38.096;2023-03-25T00:59:56;99183.66;;;7.33;70.43
69780;BME280;57052;55.602;38.096;2023-03-25T01:02:22;99185.25;;;7.34;70.27
69780;BME280;57052;55.602;38.096;2023-03-25T01:04:48;99181.25;;;7.27;70.06
69780;BME280;57052;55.602;38.096;2023-03-25T01:07:16;99176.66;;;7.27;70.49
69780;BME280;57052;55.602;38.096;2023-03-25T01:09:41;99174.53;;;7.24;70.42
69780;BME280;57052;55.602;38.096;2023-03-25T01:12:09;99171.84;;;7.19;70.41
69780;BME280;57052;55.602;38.096;2023-03-25T01:14:35;99173.47;;;7.20;70.50
69780;BME280;57052;55.602;38.096;2023-03-25T01:17:00;99172.13;;;7.18;70.62
69780;BME280;57052;55.602;38.096;2023-03-25T01:19:26;99166.22;;;7.16;70.19
69780;BME280;57052;55.602;38.096;2023-03-25T01:21:52;99161.69;;;7.06;70.52
69780;BME280;57052;55.602;38.096;2023-03-25T01:24:17;99168.09;;;7.10;70.75
69780;BME280;57052;55.602;38.096;2023-03-25T01:26:43;99155.72;;;7.04;70.58
69780;BME280;57052;55.602;38.096;2023-03-25T01:29:16;99151.97;;;7.05;70.81
69780;BME280;57052;55.602;38.096;2023-03-25T01:31:43;99145.25;;;7.02;70.76
69780;BME280;57052;55.602;38.096;2023-03-25T01:34:09;99140.94;;;6.96;70.41
69780;BME280;57052;55.602;38.096;2023-03-25T01:36:34;99142.28;;;6.99;70.50
69780;BME280;57052;55.602;38.096;2023-03-25T01:39:05;99133.44;;;6.98;70.93
69780;BME280;57052;55.602;38.096;2023-03-25T01:41:32;99120.25;;;6.97;70.65
69780;BME280;57052;55.602;38.096;2023-03-25T01:44:06;99124.56;;;6.98;70.70
69780;BME280;57052;55.602;38.096;2023-03-25T01:46:32;99126.44;;;6.97;71.06
69780;BME280;57052;55.602;38.096;2023-03-25T01:49:00;99129.13;;;6.97;70.85
69780;BME280;57052;55.602;38.096;2023-03-25T01:51:31;99123.75;;;6.97;70.88
69780;BME280;57052;55.602;38.096;2023-03-25T01:53:58;99126.16;;;6.99;71.04
69780;BME280;57052;55.602;38.096;2023-03-25T01:56:29;99128.84;;;6.99;71.48
69780;BME280;57052;55.602;38.096;2023-03-25T01:58:58;99122.94;;;6.97;71.17
69780;BME280;57052;55.602;38.096;2023-03-25T02:01:25;99119.44;;;6.96;71.28
69780;BME280;57052;55.602;38.096;2023-03-25T02:03:52;99118.09;;;6.94;71.04
69780;BME280;57052;55.602;38.096;2023-03-25T02:06:22;99115.97;;;6.96;70.92
69780;BME280;57052;55.602;38.096;2023-03-25T02:08:55;99117.31;;;6.93;71.63
69780;BME280;57052;55.602;38.096;2023-03-25T02:11:22;99111.38;;;6.91;71.26
69780;BME280;57052;55.602;38.096;2023-03-25T02:13:55;99110.31;;;6.82;72.08
69780;BME280;57052;55.602;38.096;2023-03-25T02:25:15;99093.13;;;6.88;71.62
69780;BME280;57052;55.602;38.096;2023-03-25T02:33:32;99093.34;;;6.97;71.50
69780;BME280;57052;55.602;38.096;2023-03-25T02:36:34;99084.47;;;6.91;72.24
69780;BME280;57052;55.602;38.096;2023-03-25T02:47:03;99069.16;;;6.92;71.35
69780;BME280;57052;55.602;38.096;2023-03-25T02:49:33;99058.41;;;6.82;71.87
69780;BME280;57052;55.602;38.096;2023-03-25T02:54:36;99061.09;;;6.87;71.91
69780;BME280;57052;55.602;38.096;2023-03-25T02:57:04;99050.09;;;6.83;71.30
69780;BME280;57052;55.602;38.096;2023-03-25T02:59:32;99032.09;;;6.79;71.45
69780;BME280;57052;55.602;38.096;2023-03-25T03:02:05;99028.84;;;6.72;71.78
69780;BME280;57052;55.602;38.096;2023-03-25T03:04:44;99040.69;;;6.81;72.35
69780;BME280;57052;55.602;38.096;2023-03-25T03:07:20;99028.56;;;6.83;71.89
69780;BME280;57052;55.602;38.096;2023-03-25T03:09:52;99030.97;;;6.85;72.17
69780;BME280;57052;55.602;38.096;2023-03-25T03:31:42;98976.31;;;6.94;71.18
69780;BME280;57052;55.602;38.096;2023-03-25T03:34:19;98987.88;;;7.00;71.97
69780;BME280;57052;55.602;38.096;2023-03-25T03:36:48;98993.22;;;7.05;71.88
69780;BME280;57052;55.602;38.096;2023-03-25T03:39:25;98985.44;;;7.08;71.77
69780;BME280;57052;55.602;38.096;2023-03-25T03:42:01;98986.75;;;7.11;72.32
69780;BME280;57052;55.602;38.096;2023-03-25T03:44:32;98988.63;;;7.16;71.36
69780;BME280;57052;55.602;38.096;2023-03-25T03:47:05;98984.03;;;7.16;71.41
69780;BME280;57052;55.602;38.096;2023-03-25T03:49:42;98985.09;;;7.20;71.17
69780;BME280;57052;55.602;38.096;2023-03-25T03:52:22;98973.25;;;7.21;71.80
69780;BME280;57052;55.602;38.096;2023-03-25T03:55:03;98971.59;;;7.25;71.86
69780;BME280;57052;55.602;38.096;2023-03-25T03:57:50;98968.34;;;7.28;71.83
69780;BME280;57052;55.602;38.096;2023-03-25T04:00:25;98956.50;;;7.29;71.83
69780;BME280;57052;55.602;38.096;2023-03-25T04:05:26;98949.19;;;7.35;71.22
69780;BME280;57052;55.602;38.096;2023-03-25T04:08:07;98943.53;;;7.36;71.06
69780;BME280;57052;55.602;38.096;2023-03-25T04:10:50;98940.53;;;7.43;71.08
69780;BME280;57052;55.602;38.096;2023-03-25T04:13:20;98924.91;;;7.45;71.71
69780;BME280;57052;55.602;38.096;2023-03-25T04:15:46;98926.19;;;7.52;70.76
69780;BME280;57052;55.602;38.096;2023-03-25T04:18:12;98923.75;;;7.56;70.76
69780;BME280;57052;55.602;38.096;2023-03-25T04:20:37;98906.81;;;7.50;70.88
69780;BME280;57052;55.602;38.096;2023-03-25T04:23:10;98927.16;;;7.66;70.74
69780;BME280;57052;55.602;38.096;2023-03-25T04:25:41;98920.94;;;7.71;70.59
69780;BME280;57052;55.602;38.096;2023-03-25T04:28:09;98910.88;;;7.76;70.56
69780;BME280;57052;55.602;38.096;2023-03-25T04:30:39;98911.94;;;7.81;70.58
69780;BME280;57052;55.602;38.096;2023-03-25T04:33:05;98911.91;;;7.86;70.66
69780;BME280;57052;55.602;38.096;2023-03-25T04:35:31;98906.72;;;7.89;70.90
69780;BME280;57052;55.602;38.096;2023-03-25T04:37:57;98907.53;;;7.90;70.47
69780;BME280;57052;55.602;38.096;2023-03-25T04:40:23;98918.56;;;7.93;70.92
69780;BME280;57052;55.602;38.096;2023-03-25T04:42:50;98904.78;;;7.95;70.73
69780;BME280;57052;55.602;38.096;2023-03-25T04:45:17;98908.81;;;7.97;70.45
69780;BME280;57052;55.602;38.096;2023-03-25T04:47:45;98898.28;;;8.01;70.67
69780;BME280;57052;55.602;38.096;2023-03-25T04:50:23;98886.41;;;8.02;71.12
69780;BME280;57052;55.602;38.096;2023-03-25T04:52:50;98869.91;;;8.08;70.63
69780;BME280;57052;55.602;38.096;2023-03-25T04:55:16;98878.19;;;8.12;70.64
69780;BME280;57052;55.602;38.096;2023-03-25T04:57:45;98878.56;;;8.05;70.16
69780;BME280;57052;55.602;38.096;2023-03-25T05:00:13;98874.38;;;8.18;70.50
69780;BME280;57052;55.602;38.096;2023-03-25T05:02:47;98867.38;;;8.17;70.50
69780;BME280;57052;55.602;38.096;2023-03-25T05:05:15;98852.81;;;8.18;70.47
69780;BME280;57052;55.602;38.096;2023-03-25T05:07:46;98852.19;;;8.26;70.14
69780;BME280;57052;55.602;38.096;2023-03-25T05:10:15;98848.66;;;8.30;70.23
69780;BME280;57052;55.602;38.096;2023-03-25T05:12:41;98845.91;;;8.35;69.97
69780;BME280;57052;55.602;38.096;2023-03-25T05:15:08;98838.69;;;8.31;70.13
69780;BME280;57052;55.602;38.096;2023-03-25T05:17:34;98844.44;;;8.43;69.79
69780;BME280;57052;55.602;38.096;2023-03-25T05:20:00;98837.16;;;8.44;69.94
69780;BME280;57052;55.602;38.096;2023-03-25T05:22:26;98838.13;;;8.53;69.57
69780;BME280;57052;55.602;38.096;2023-03-25T05:24:51;98830.25;;;8.56;70.47
69780;BME280;57052;55.602;38.096;2023-03-25T05:27:19;98839.06;;;8.62;69.88
69780;BME280;57052;55.602;38.096;2023-03-25T05:29:45;98852.78;;;8.65;69.62
69780;BME280;57052;55.602;38.096;2023-03-25T05:32:11;98849.22;;;8.70;70.01
69780;BME280;57052;55.602;38.096;2023-03-25T05:34:38;98833.75;;;8.75;70.11
69780;BME280;57052;55.602;38.096;2023-03-25T05:37:04;98831.81;;;8.81;69.88
69780;BME280;57052;55.602;38.096;2023-03-25T05:39:30;98847.09;;;8.85;68.95
69780;BME280;57052;55.602;38.096;2023-03-25T05:41:55;98834.13;;;8.87;69.79
69780;BME280;57052;55.602;38.096;2023-03-25T05:44:27;98831.94;;;8.89;69.18
69780;BME280;57052;55.602;38.096;2023-03-25T05:46:53;98832.66;;;8.95;69.55
69780;BME280;57052;55.602;38.096;2023-03-25T05:49:18;98824.50;;;9.00;68.94
69780;BME280;57052;55.602;38.096;2023-03-25T05:51:46;98834.94;;;9.07;69.34
69780;BME280;57052;55.602;38.096;2023-03-25T05:54:14;98827.84;;;9.11;69.34
69780;BME280;57052;55.602;38.096;2023-03-25T05:56:40;98830.47;;;9.16;69.69
69780;BME280;57052;55.602;38.096;2023-03-25T05:59:07;98827.69;;;9.21;69.07
69780;BME280;57052;55.602;38.096;2023-03-25T06:01:33;98826.72;;;9.30;69.45
69780;BME280;57052;55.602;38.096;2023-03-25T06:04:03;98832.03;;;9.35;69.08
69780;BME280;57052;55.602;38.096;2023-03-25T06:06:29;98836.44;;;9.45;69.40
69780;BME280;57052;55.602;38.096;2023-03-25T06:08:56;98830.38;;;9.53;68.75
69780;BME280;57052;55.602;38.096;2023-03-25T06:11:22;98820.06;;;9.55;68.77
69780;BME280;57052;55.602;38.096;2023-03-25T06:13:47;98815.28;;;9.65;69.08
69780;BME280;57052;55.602;38.096;2023-03-25T06:16:20;98807.09;;;9.71;68.68
69780;BME280;57052;55.602;38.096;2023-03-25T06:18:48;98802.91;;;9.78;69.11
69780;BME280;57052;55.602;38.096;2023-03-25T06:21:21;98792.31;;;9.82;68.49
69780;BME280;57052;55.602;38.096;2023-03-25T06:23:47;98790.28;;;9.87;68.70
69780;BME280;57052;55.602;38.096;2023-03-25T06:26:14;98794.19;;;9.95;68.29
69780;BME280;57052;55.602;38.096;2023-03-25T06:28:40;98800.03;;;10.02;68.25
69780;BME280;57052;55.602;38.096;2023-03-25T06:31:11;98805.13;;;10.03;68.48
69780;BME280;57052;55.602;38.096;2023-03-25T06:33:37;98787.69;;;9.96;68.86
69780;BME280;57052;55.602;38.096;2023-03-25T06:36:03;98788.91;;;10.03;68.71
69780;BME280;57052;55.602;38.096;2023-03-25T06:38:28;98783.00;;;10.15;68.45
69780;BME280;57052;55.602;38.096;2023-03-25T06:40:54;98786.50;;;10.15;68.79
69780;BME280;57052;55.602;38.096;2023-03-25T06:43:21;98783.22;;;10.18;68.91
69780;BME280;57052;55.602;38.096;2023-03-25T06:45:50;98778.91;;;10.31;68.36
69780;BME280;57052;55.602;38.096;2023-03-25T06:48:15;98783.59;;;10.39;68.40
69780;BME280;57052;55.602;38.096;2023-03-25T06:50:41;98774.06;;;10.42;68.60
69780;BME280;57052;55.602;38.096;2023-03-25T06:53:07;98724.22;;;10.20;68.30
69780;BME280;57052;55.602;38.096;2023-03-25T06:55:32;98771.94;;;10.52;68.21
69780;BME280;57052;55.602;38.096;2023-03-25T06:57:58;98767.22;;;10.58;68.17
69780;BME280;57052;55.602;38.096;2023-03-25T07:00:23;98774.94;;;10.64;68.17
69780;BME280;57052;55.602;38.096;2023-03-25T07:02:51;98765.06;;;10.68;68.27
69780;BME280;57052;55.602;38.096;2023-03-25T07:05:16;98765.28;;;10.72;68.14
69780;BME280;57052;55.602;38.096;2023-03-25T07:07:42;98746.44;;;10.67;68.17
69780;BME280;57052;55.602;38.096;2023-03-25T07:10:11;98749.78;;;10.86;68.06
69780;BME280;57052;55.602;38.096;2023-03-25T07:12:37;98741.03;;;10.89;67.86
69780;BME280;57052;55.602;38.096;2023-03-25T07:15:03;98743.16;;;10.92;67.92
69780;BME280;57052;55.602;38.096;2023-03-25T07:17:29;98754.34;;;10.99;67.67
69780;BME280;57052;55.602;38.096;2023-03-25T07:19:55;98765.53;;;11.06;67.84
69780;BME280;57052;55.602;38.096;2023-03-25T07:22:20;98735.31;;;10.90;67.67
69780;BME280;57052;55.602;38.096;2023-03-25T07:25:04;98764.19;;;11.17;67.71
69780;BME280;57052;55.602;38.096;2023-03-25T07:27:49;98760.19;;;11.15;68.18
69780;BME280;57052;55.602;38.096;2023-03-25T07:30:14;98774.03;;;11.13;68.03
69780;BME280;57052;55.602;38.096;2023-03-25T07:32:40;98756.19;;;11.12;67.91
69780;BME280;57052;55.602;38.096;2023-03-25T07:35:06;98740.34;;;11.06;67.76
69780;BME280;57052;55.602;38.096;2023-03-25T07:37:33;98754.31;;;11.21;68.01
69780;BME280;57052;55.602;38.096;2023-03-25T07:39:59;98748.91;;;11.21;67.80
69780;BME280;57052;55.602;38.096;2023-03-25T07:42:25;98742.19;;;11.19;67.91
69780;BME280;57052;55.602;38.096;2023-03-25T07:44:51;98762.34;;;11.35;67.77
69780;BME280;57052;55.602;38.096;2023-03-25T07:47:17;98749.13;;;11.33;67.74
69780;BME280;57052;55.602;38.096;2023-03-25T07:49:42;98753.06;;;11.27;68.55
69780;BME280;57052;55.602;38.096;2023-03-25T07:52:09;98734.56;;;11.21;67.72
69780;BME280;57052;55.602;38.096;2023-03-25T07:54:34;98748.66;;;11.31;67.63
69780;BME280;57052;55.602;38.096;2023-03-25T07:57:01;98753.38;;;11.26;68.15
69780;BME280;57052;55.602;38.096;2023-03-25T07:59:26;98748.94;;;11.30;68.17
69780;BME280;57052;55.602;38.096;2023-03-25T08:01:52;98747.72;;;11.36;68.18
69780;BME280;57052;55.602;38.096;2023-03-25T08:04:17;98740.81;;;11.30;68.62
69780;BME280;57052;55.602;38.096;2023-03-25T08:06:43;98711.25;;;11.11;68.07
69780;BME280;57052;55.602;38.096;2023-03-25T08:09:09;98737.97;;;11.35;68.45
69780;BME280;57052;55.602;38.096;2023-03-25T08:11:35;98733.22;;;11.40;68.49
69780;BME280;57052;55.602;38.096;2023-03-25T08:14:00;98734.50;;;11.34;68.38
69780;BME280;57052;55.602;38.096;2023-03-25T08:16:26;98751.56;;;11.43;68.65
69780;BME280;57052;55.602;38.096;2023-03-25T08:18:52;98755.56;;;11.46;68.60
69780;BME280;57052;55.602;38.096;2023-03-25T08:21:19;98756.06;;;11.48;68.54
69780;BME280;57052;55.602;38.096;2023-03-25T08:23:51;98764.03;;;11.44;68.80
69780;BME280;57052;55.602;38.096;2023-03-25T08:29:08;98763.38;;;11.47;68.74
69780;BME280;57052;55.602;38.096;2023-03-25T08:31:34;98768.31;;;11.45;69.03
69780;BME280;57052;55.602;38.096;2023-03-25T08:34:03;98767.38;;;11.50;69.00
69780;BME280;57052;55.602;38.096;2023-03-25T08:36:30;98775.50;;;11.50;68.78
69780;BME280;57052;55.602;38.096;2023-03-25T08:38:55;98772.16;;;11.44;69.12
69780;BME280;57052;55.602;38.096;2023-03-25T08:41:21;98764.44;;;11.38;69.11
69780;BME280;57052;55.602;38.096;2023-03-25T08:43:47;98764.31;;;11.43;69.43
69780;BME280;57052;55.602;38.096;2023-03-25T08:46:13;98767.84;;;11.43;69.35
69780;BME280;57052;55.602;38.096;2023-03-25T08:48:39;98774.00;;;11.35;69.85
69780;BME280;57052;55.602;38.096;2023-03-25T08:51:04;98770.63;;;11.30;70.24
69780;BME280;57052;55.602;38.096;2023-03-25T08:56:52;98793.22;;;11.25;70.94
69780;BME280;57052;55.602;38.096;2023-03-25T08:59:17;98787.31;;;11.23;70.77
69780;BME280;57052;55.602;38.096;2023-03-25T09:01:43;98786.47;;;11.14;71.30
69780;BME280;57052;55.602;38.096;2023-03-25T09:04:10;98779.50;;;11.22;71.44
69780;BME280;57052;55.602;38.096;2023-03-25T09:06:36;98776.28;;;11.20;71.46
69780;BME280;57052;55.602;38.096;2023-03-25T09:09:04;98776.81;;;11.22;71.54
69780;BME280;57052;55.602;38.096;2023-03-25T09:11:33;98771.50;;;11.17;71.80
69780;BME280;57052;55.602;38.096;2023-03-25T09:13:59;98786.03;;;11.21;72.02
69780;BME280;57052;55.602;38.096;2023-03-25T09:19:35;98786.81;;;11.21;72.28
69780;BME280;57052;55.602;38.096;2023-03-25T09:24:46;98794.94;;;11.21;72.25
69780;BME280;57052;55.602;38.096;2023-03-25T09:27:12;98788.72;;;11.21;72.61
69780;BME280;57052;55.602;38.096;2023-03-25T09:30:03;98786.94;;;11.16;73.40
69780;BME280;57052;55.602;38.096;2023-03-25T09:32:29;98785.53;;;11.19;72.83
69780;BME280;57052;55.602;38.096;2023-03-25T09:34:55;98770.81;;;11.11;73.21
69780;BME280;57052;55.602;38.096;2023-03-25T09:37:22;98780.59;;;11.21;72.98
69780;BME280;57052;55.602;38.096;2023-03-25T09:39:47;98784.59;;;11.23;72.59
69780;BME280;57052;55.602;38.096;2023-03-25T09:42:29;98779.00;;;11.20;73.98
69780;BME280;57052;55.602;38.096;2023-03-25T09:50:40;98760.13;;;11.06;73.53
69780;BME280;57052;55.602;38.096;2023-03-25T09:56:19;98793.66;;;11.19;74.72
69780;BME280;57052;55.602;38.096;2023-03-25T10:15:45;98805.56;;;11.40;74.75
69780;BME280;57052;55.602;38.096;2023-03-25T10:24:01;98801.78;;;11.41;74.77
69780;BME280;57052;55.602;38.096;2023-03-25T10:29:58;98824.13;;;11.46;74.83
69780;BME280;57052;55.602;38.096;2023-03-25T10:32:35;98813.63;;;11.53;73.81
69780;BME280;57052;55.602;38.096;2023-03-25T10:35:04;98818.44;;;11.56;73.96
69780;BME280;57052;55.602;38.096;2023-03-25T10:37:33;98826.13;;;11.63;74.21
69780;BME280;57052;55.602;38.096;2023-03-25T10:48:31;98817.16;;;11.76;74.51
69780;BME280;57052;55.602;38.096;2023-03-25T10:53:31;98820.88;;;11.89;73.31
69780;BME280;57052;55.602;38.096;2023-03-25T10:56:16;98822.78;;;11.88;73.32
69780;BME280;57052;55.602;38.096;2023-03-25T10:58:47;98823.44;;;11.94;73.23
69780;BME280;57052;55.602;38.096;2023-03-25T11:01:18;98819.44;;;11.91;73.55
69780;BME280;57052;55.602;38.096;2023-03-25T11:03:48;98826.97;;;11.94;73.41
69780;BME280;57052;55.602;38.096;2023-03-25T11:11:33;98797.13;;;11.94;73.14
69780;BME280;57052;55.602;38.096;2023-03-25T11:13:59;98810.28;;;12.09;73.40
69780;BME280;57052;55.602;38.096;2023-03-25T11:16:25;98819.53;;;12.08;73.09
69780;BME280;57052;55.602;38.096;2023-03-25T11:18:52;98834.38;;;12.11;73.01
69780;BME280;57052;55.602;38.096;2023-03-25T11:21:19;98831.66;;;12.11;73.00
69780;BME280;57052;55.602;38.096;2023-03-25T11:23:47;98820.81;;;12.11;73.26
69780;BME280;57052;55.602;38.096;2023-03-25T11:26:23;98832.41;;;12.03;73.54
69780;BME280;57052;55.602;38.096;2023-03-25T11:29:00;98809.88;;;11.94;73.78
69780;BME280;57052;55.602;38.096;2023-03-25T11:31:55;98818.22;;;12.06;73.76
69780;BME280;57052;55.602;38.096;2023-03-25T11:34:21;98784.53;;;11.90;73.29
69780;BME280;57052;55.602;38.096;2023-03-25T11:37:03;98816.47;;;12.01;73.88
69780;BME280;57052;55.602;38.096;2023-03-25T11:39:38;98820.41;;;11.95;73.93
69780;BME280;57052;55.602;38.096;2023-03-25T11:42:16;98830.84;;;12.02;73.89
69780;BME280;57052;55.602;38.096;2023-03-25T11:44:52;98828.94;;;12.02;73.54
69780;BME280;57052;55.602;38.096;2023-03-25T11:47:23;98819.34;;;12.05;73.41
69780;BME280;57052;55.602;38.096;2023-03-25T11:49:51;98810.56;;;11.99;73.28
69780;BME280;57052;55.602;38.096;2023-03-25T11:55:05;98805.78;;;12.05;73.59
69780;BME280;57052;55.602;38.096;2023-03-25T11:57:37;98810.50;;;11.91;73.62
69780;BME280;57052;55.602;38.096;2023-03-25T12:00:16;98806.56;;;11.97;73.60
69780;BME280;57052;55.602;38.096;2023-03-25T12:02:45;98811.56;;;12.12;73.23
69780;BME280;57052;55.602;38.096;2023-03-25T12:05:13;98812.66;;;12.11;73.27
69780;BME280;57052;55.602;38.096;2023-03-25T12:07:49;98813.94;;;12.13;73.31
69780;BME280;57052;55.602;38.096;2023-03-25T12:10:26;98808.66;;;12.08;73.36
69780;BME280;57052;55.602;38.096;2023-03-25T12:15:44;98811.72;;;12.15;73.62
69780;BME280;57052;55.602;38.096;2023-03-25T12:21:13;98806.91;;;12.12;74.08
69780;BME280;57052;55.602;38.096;2023-03-25T12:32:52;98822.91;;;12.22;73.13
69780;BME280;57052;55.602;38.096;2023-03-25T12:36:06;98828.13;;;12.10;74.00
69780;BME280;57052;55.602;38.096;2023-03-25T12:41:27;98819.69;;;12.12;73.71
69780;BME280;57052;55.602;38.096;2023-03-25T12:44:07;98821.28;;;12.04;73.39
69780;BME280;57052;55.602;38.096;2023-03-25T13:05:59;98831.59;;;11.94;74.49
69780;BME280;57052;55.602;38.096;2023-03-25T13:08:41;98827.59;;;11.91;74.24
69780;BME280;57052;55.602;38.096;2023-03-25T13:11:33;98827.25;;;11.84;75.18
69780;BME280;57052;55.602;38.096;2023-03-25T13:14:05;98808.88;;;11.81;74.54
69780;BME280;57052;55.602;38.096;2023-03-25T13:16:33;98777.03;;;11.65;74.32
69780;BME280;57052;55.602;38.096;2023-03-25T13:21:46;98812.41;;;11.90;75.24
69780;BME280;57052;55.602;38.096;2023-03-25T13:24:23;98810.84;;;11.98;74.77
69780;BME280;57052;55.602;38.096;2023-03-25T13:26:52;98787.41;;;11.93;74.28
69780;BME280;57052;55.602;38.096;2023-03-25T13:29:42;98812.81;;;12.06;74.47
69780;BME280;57052;55.602;38.096;2023-03-25T13:32:16;98816.19;;;12.11;74.34
69780;BME280;57052;55.602;38.096;2023-03-25T13:35:05;98816.47;;;12.10;75.01
69780;BME280;57052;55.602;38.096;2023-03-25T13:37:37;98821.44;;;12.08;74.49
69780;BME280;57052;55.602;38.096;2023-03-25T13:40:33;98818.06;;;12.02;75.16
69780;BME280;57052;55.602;38.096;2023-03-25T13:45:53;98794.28;;;11.99;74.53
69780;BME280;57052;55.602;38.096;2023-03-25T13:48:49;98814.56;;;12.10;75.35
69780;BME280;57052;55.602;38.096;2023-03-25T13:51:17;98815.84;;;12.13;74.27
69780;BME280;57052;55.602;38.096;2023-03-25T13:59:14;98822.13;;;12.22;75.15
69780;BME280;57052;55.602;38.096;2023-03-25T14:05:25;98825.31;;;12.24;75.18
69780;BME280;57052;55.602;38.096;2023-03-25T14:13:32;98811.75;;;12.24;74.52
69780;BME280;57052;55.602;38.096;2023-03-25T14:16:19;98815.28;;;12.33;74.87
69780;BME280;57052;55.602;38.096;2023-03-25T14:21:56;98818.47;;;12.35;74.49
69780;BME280;57052;55.602;38.096;2023-03-25T14:24:33;98810.84;;;12.37;74.69
69780;BME280;57052;55.602;38.096;2023-03-25T14:30:05;98791.97;;;12.23;74.30
69780;BME280;57052;55.602;38.096;2023-03-25T14:32:33;98828.56;;;12.43;74.08
69780;BME280;57052;55.602;38.096;2023-03-25T14:43:22;98831.28;;;12.43;73.91
69780;BME280;57052;55.602;38.096;2023-03-25T14:54:20;98830.13;;;12.27;74.49
69780;BME280;57052;55.602;38.096;2023-03-25T15:02:20;98841.06;;;12.13;74.59
69780;BME280;57052;55.602;38.096;2023-03-25T15:04:57;98842.19;;;12.12;75.02
69780;BME280;57052;55.602;38.096;2023-03-25T15:07:46;98844.25;;;12.07;74.86
69780;BME280;57052;55.602;38.096;2023-03-25T15:13:03;98839.59;;;11.99;75.28
69780;BME280;57052;55.602;38.096;2023-03-25T15:27:36;98842.91;;;11.96;75.10
69780;BME280;57052;55.602;38.096;2023-03-25T15:38:15;98872.16;;;11.77;76.68
69780;BME280;57052;55.602;38.096;2023-03-25T15:55:19;98876.69;;;11.68;76.18
69780;BME280;57052;55.602;38.096;2023-03-25T16:00:52;98898.38;;;11.68;76.21
69780;BME280;57052;55.602;38.096;2023-03-25T16:03:23;98892.09;;;11.72;75.72
69780;BME280;57052;55.602;38.096;2023-03-25T16:05:53;98880.72;;;11.70;75.91
69780;BME280;57052;55.602;38.096;2023-03-25T16:10:53;98888.66;;;11.67;75.97
69780;BME280;57052;55.602;38.096;2023-03-25T16:13:21;98881.94;;;11.64;76.08
69780;BME280;57052;55.602;38.096;2023-03-25T16:15:55;98881.13;;;11.64;76.14
69780;BME280;57052;55.602;38.096;2023-03-25T16:18:21;98883.03;;;11.63;76.03
69780;BME280;57052;55.602;38.096;2023-03-25T16:20:56;98880.66;;;11.62;76.24
69780;BME280;57052;55.602;38.096;2023-03-25T16:23:24;98878.06;;;11.56;76.14
69780;BME280;57052;55.602;38.096;2023-03-25T16:25:51;98877.47;;;11.59;76.10
69780;BME280;57052;55.602;38.096;2023-03-25T16:28:22;98885.59;;;11.59;76.18
69780;BME280;57052;55.602;38.096;2023-03-25T16:30:50;98884.28;;;11.57;76.34
69780;BME280;57052;55.602;38.096;2023-03-25T16:33:23;98874.06;;;11.54;76.21
69780;BME280;57052;55.602;38.096;2023-03-25T16:35:59;98887.00;;;11.57;76.21
69780;BME280;57052;55.602;38.096;2023-03-25T16:38:25;98892.44;;;11.57;75.98
69780;BME280;57052;55.602;38.096;2023-03-25T16:40:58;98894.81;;;11.58;76.14
69780;BME280;57052;55.602;38.096;2023-03-25T16:43:26;98885.19;;;11.52;75.97
69780;BME280;57052;55.602;38.096;2023-03-25T16:45:59;98903.91;;;11.63;76.24
69780;BME280;57052;55.602;38.096;2023-03-25T16:51:21;98903.25;;;11.57;76.04
69780;BME280;57052;55.602;38.096;2023-03-25T16:54:08;98899.25;;;11.54;76.38
69780;BME280;57052;55.602;38.096;2023-03-25T16:56:54;98898.81;;;11.61;76.02
69780;BME280;57052;55.602;38.096;2023-03-25T16:59:39;98901.47;;;11.52;76.45
69780;BME280;57052;55.602;38.096;2023-03-25T17:02:23;98894.38;;;11.43;76.30
69780;BME280;57052;55.602;38.096;2023-03-25T17:04:49;98905.28;;;11.51;75.74
69780;BME280;57052;55.602;38.096;2023-03-25T17:07:22;98907.81;;;11.48;75.93
69780;BME280;57052;55.602;38.096;2023-03-25T17:09:56;98909.72;;;11.47;75.90
69780;BME280;57052;55.602;38.096;2023-03-25T17:12:25;98911.94;;;11.45;75.74
69780;BME280;57052;55.602;38.096;2023-03-25T17:14:57;98920.88;;;11.46;76.02